createdAt,value
2022-08-25T00:00:59.081Z,4.30
2022-08-25T00:01:59.052Z,3.90
2022-08-25T00:02:59.097Z,4.00
2022-08-25T00:03:59.035Z,3.80
2022-08-25T00:04:59.039Z,4.10
2022-08-25T00:05:59.066Z,4.60
2022-08-25T00:07:02.904Z,4.10
2022-08-25T00:08:00.081Z,4.30
2022-08-25T00:08:58.987Z,4.30
2022-08-25T00:09:58.979Z,4.60
2022-08-25T00:11:03.469Z,4.20
2022-08-25T00:11:58.970Z,4.30
2022-08-25T00:12:58.949Z,4.70
2022-08-25T00:13:58.938Z,4.70
2022-08-25T00:14:58.929Z,4.50
2022-08-25T00:15:58.966Z,4.40
2022-08-25T00:16:58.934Z,4.30
2022-08-25T00:17:58.977Z,4.70
2022-08-25T00:18:58.881Z,4.40
2022-08-25T00:19:58.866Z,4.60
2022-08-25T00:20:58.867Z,4.50
2022-08-25T00:21:58.887Z,4.30
2022-08-25T00:22:58.848Z,4.40
2022-08-25T00:23:58.841Z,4.50
2022-08-25T00:24:58.830Z,4.30
2022-08-25T00:25:58.822Z,4.40
2022-08-25T00:26:58.824Z,4.40
2022-08-25T00:27:58.793Z,4.60
2022-08-25T00:29:01.886Z,4.50
2022-08-25T00:29:58.787Z,4.50
2022-08-25T00:30:58.829Z,4.80
2022-08-25T00:31:58.784Z,4.30
2022-08-25T00:32:58.763Z,4.50
2022-08-25T00:33:58.744Z,4.30
2022-08-25T00:34:58.734Z,4.40
2022-08-25T00:35:58.723Z,4.70
2022-08-25T00:36:58.734Z,4.70
2022-08-25T00:37:58.705Z,4.40
2022-08-25T00:38:58.698Z,4.40
2022-08-25T00:39:58.739Z,4.80
2022-08-25T00:40:58.674Z,4.50
2022-08-25T00:41:58.682Z,5.10
2022-08-25T00:42:58.655Z,4.60
2022-08-25T00:43:58.644Z,4.70
2022-08-25T00:44:58.639Z,4.80
2022-08-25T00:45:58.651Z,5.20
2022-08-25T00:46:58.635Z,5.20
2022-08-25T00:48:00.035Z,5.20
2022-08-25T00:48:58.591Z,5.40
2022-08-25T00:49:58.586Z,5.30
2022-08-25T00:50:58.572Z,5.20
2022-08-25T00:51:58.605Z,5.10
2022-08-25T00:52:58.555Z,5.30
2022-08-25T00:53:58.538Z,5.50
2022-08-25T00:55:01.912Z,5.50
2022-08-25T00:55:58.530Z,5.10
2022-08-25T00:56:58.540Z,5.00
2022-08-25T00:57:58.525Z,5.20
2022-08-25T00:58:58.494Z,4.80
2022-08-25T00:59:58.517Z,5.00
2022-08-25T01:00:58.484Z,5.40
2022-08-25T01:01:58.533Z,4.80
2022-08-25T01:02:58.476Z,5.20
2022-08-25T01:03:58.438Z,4.90
2022-08-25T01:04:58.433Z,5.10
2022-08-25T01:05:58.438Z,4.90
2022-08-25T01:06:58.481Z,5.50
2022-08-25T01:07:58.727Z,5.30
2022-08-25T01:08:58.398Z,5.20
2022-08-25T01:09:58.390Z,5.40
2022-08-25T01:10:58.382Z,5.20
2022-08-25T01:11:58.407Z,5.50
2022-08-25T01:12:58.348Z,5.30
2022-08-25T01:13:58.351Z,5.40
2022-08-25T01:14:58.337Z,5.50
2022-08-25T01:15:58.352Z,5.50
2022-08-25T01:16:58.327Z,5.30
2022-08-25T01:17:58.303Z,5.30
2022-08-25T01:18:58.300Z,5.70
2022-08-25T01:19:58.286Z,5.50
2022-08-25T01:20:58.271Z,5.50
2022-08-25T01:21:58.283Z,5.60
2022-08-25T01:22:58.259Z,5.80
2022-08-25T01:23:58.269Z,5.70
2022-08-25T01:24:58.238Z,5.50
2022-08-25T01:25:58.222Z,5.60
2022-08-25T01:26:58.229Z,6.30
2022-08-25T01:27:58.195Z,5.80
2022-08-25T01:28:58.197Z,5.40
2022-08-25T01:29:58.209Z,5.70
2022-08-25T01:30:58.286Z,5.70
2022-08-25T01:31:58.190Z,5.90
2022-08-25T01:32:58.162Z,5.50
2022-08-25T01:33:58.163Z,5.40
2022-08-25T01:34:58.148Z,5.50
2022-08-25T01:35:58.130Z,5.90
2022-08-25T01:36:58.144Z,6.20
2022-08-25T01:37:58.118Z,6.00
2022-08-25T01:38:58.104Z,6.30
2022-08-25T01:39:58.116Z,5.60
2022-08-25T01:40:58.079Z,5.90
2022-08-25T01:41:58.095Z,6.00
2022-08-25T01:42:58.065Z,5.30
2022-08-25T01:43:58.056Z,5.30
2022-08-25T01:44:58.044Z,5.30
2022-08-25T01:45:58.102Z,6.10
2022-08-25T01:46:58.045Z,5.70
2022-08-25T01:47:58.015Z,5.90
2022-08-25T01:48:58.017Z,5.70
2022-08-25T01:49:57.985Z,6.20
2022-08-25T01:50:57.984Z,6.30
2022-08-25T01:51:57.997Z,6.10
2022-08-25T01:52:57.963Z,6.20
2022-08-25T01:53:57.956Z,6.00
2022-08-25T01:54:57.959Z,6.30
2022-08-25T01:55:57.922Z,6.00
2022-08-25T01:56:57.939Z,6.30
2022-08-25T01:57:57.917Z,6.80
2022-08-25T01:58:57.910Z,6.40
2022-08-25T01:59:57.902Z,6.50
2022-08-25T02:00:57.927Z,6.10
2022-08-25T02:02:00.043Z,6.00
2022-08-25T02:04:58.758Z,6.20
2022-08-25T02:05:43.985Z,6.20
2022-08-25T02:06:43.991Z,6.20
2022-08-25T02:07:43.964Z,6.40
2022-08-25T02:08:43.958Z,6.00
2022-08-25T02:09:45.063Z,6.20
2022-08-25T02:10:45.054Z,6.00
2022-08-25T02:11:45.068Z,5.90
2022-08-25T02:12:45.032Z,5.90
2022-08-25T02:13:45.015Z,6.40
2022-08-25T02:14:45.012Z,6.10
2022-08-25T02:15:45.010Z,6.00
2022-08-25T02:16:45.034Z,6.00
2022-08-25T02:17:44.984Z,6.20
2022-08-25T02:18:44.973Z,6.00
2022-08-25T02:19:44.962Z,5.80
2022-08-25T02:20:44.954Z,5.70
2022-08-25T02:21:44.964Z,6.00
2022-08-25T02:22:51.185Z,5.70
2022-08-25T02:23:45.930Z,6.10
2022-08-25T02:24:44.920Z,5.50
2022-08-25T02:25:44.905Z,5.60
2022-08-25T02:26:44.910Z,5.30
2022-08-25T02:27:44.882Z,5.40
2022-08-25T02:28:44.861Z,5.60
2022-08-25T02:29:44.851Z,6.00
2022-08-25T02:30:44.899Z,6.00
2022-08-25T02:31:44.861Z,5.80
2022-08-25T02:32:44.833Z,6.00
2022-08-25T02:33:44.820Z,5.60
2022-08-25T02:34:44.815Z,5.70
2022-08-25T02:35:44.801Z,5.80
2022-08-25T02:36:44.806Z,6.10
2022-08-25T02:37:44.786Z,5.80
2022-08-25T02:38:44.767Z,5.60
2022-08-25T02:39:45.789Z,5.90
2022-08-25T02:40:44.751Z,5.80
2022-08-25T02:41:44.748Z,5.60
2022-08-25T02:42:44.743Z,5.80
2022-08-25T02:43:44.720Z,6.10
2022-08-25T02:44:44.711Z,6.10
2022-08-25T02:45:44.773Z,5.70
2022-08-25T02:46:44.704Z,5.90
2022-08-25T02:47:44.683Z,5.70
2022-08-25T02:48:44.670Z,6.10
2022-08-25T02:49:44.649Z,6.30
2022-08-25T02:50:44.650Z,6.20
2022-08-25T02:51:44.658Z,6.40
2022-08-25T02:52:44.639Z,6.50
2022-08-25T02:53:44.612Z,6.90
2022-08-25T02:54:44.601Z,6.70
2022-08-25T02:55:44.599Z,6.60
2022-08-25T02:56:44.599Z,6.70
2022-08-25T02:57:44.568Z,7.30
2022-08-25T02:58:44.569Z,7.40
2022-08-25T02:59:44.564Z,7.50
2022-08-25T03:00:44.605Z,7.70
2022-08-25T03:01:44.549Z,8.10
2022-08-25T03:02:44.528Z,8.60
2022-08-25T03:03:44.686Z,8.20
2022-08-25T03:04:44.564Z,8.50
2022-08-25T03:05:44.492Z,8.80
2022-08-25T03:07:16.394Z,8.60
2022-08-25T03:07:44.471Z,9.20
2022-08-25T03:08:44.472Z,9.50
2022-08-25T03:09:44.463Z,9.00
2022-08-25T03:10:44.457Z,9.90
2022-08-25T03:11:44.463Z,10.00
2022-08-25T03:12:44.437Z,8.90
2022-08-25T03:13:44.420Z,9.30
2022-08-25T03:14:44.429Z,8.90
2022-08-25T03:15:44.411Z,9.80
2022-08-25T03:16:46.238Z,9.00
2022-08-25T03:17:45.850Z,8.70
2022-08-25T03:18:44.376Z,8.40
2022-08-25T03:19:44.369Z,8.50
2022-08-25T03:20:44.401Z,8.40
2022-08-25T03:21:44.357Z,8.90
2022-08-25T03:22:44.339Z,8.60
2022-08-25T03:23:44.339Z,8.90
2022-08-25T03:24:44.327Z,9.20
2022-08-25T03:25:44.306Z,9.20
2022-08-25T03:26:44.320Z,8.40
2022-08-25T03:27:44.298Z,8.50
2022-08-25T03:28:44.292Z,8.50
2022-08-25T03:29:44.269Z,8.40
2022-08-25T03:30:44.268Z,8.20
2022-08-25T03:31:44.314Z,8.40
2022-08-25T03:32:44.250Z,8.60
2022-08-25T03:33:44.232Z,8.00
2022-08-25T03:34:44.226Z,8.40
2022-08-25T03:35:44.208Z,7.70
2022-08-25T03:36:44.230Z,7.60
2022-08-25T03:37:44.194Z,7.80
2022-08-25T03:38:44.185Z,8.00
2022-08-25T03:39:44.336Z,7.70
2022-08-25T03:40:44.171Z,8.30
2022-08-25T03:41:44.168Z,8.10
2022-08-25T03:42:45.173Z,8.10
2022-08-25T03:43:45.148Z,8.40
2022-08-25T03:44:44.135Z,8.40
2022-08-25T03:45:44.161Z,8.10
2022-08-25T03:46:44.122Z,7.90
2022-08-25T03:47:44.098Z,8.10
2022-08-25T03:48:44.094Z,8.10
2022-08-25T03:49:44.081Z,8.30
2022-08-25T03:50:44.118Z,8.60
2022-08-25T03:51:45.080Z,8.20
2022-08-25T03:52:44.058Z,7.90
2022-08-25T03:53:44.030Z,8.60
2022-08-25T03:54:44.026Z,8.20
2022-08-25T03:55:44.013Z,8.40
2022-08-25T03:56:44.034Z,8.10
2022-08-25T03:57:43.993Z,8.20
2022-08-25T03:58:43.986Z,8.60
2022-08-25T03:59:44.979Z,8.90
2022-08-25T04:00:43.988Z,8.80
2022-08-25T04:01:43.963Z,8.20
2022-08-25T04:02:44.017Z,8.80
2022-08-25T04:03:43.943Z,8.40
2022-08-25T04:04:43.924Z,8.70
2022-08-25T04:05:43.905Z,9.10
2022-08-25T04:06:43.922Z,7.90
2022-08-25T04:07:44.899Z,8.10
2022-08-25T04:08:43.903Z,8.40
2022-08-25T04:09:43.883Z,8.20
2022-08-25T04:10:43.879Z,8.70
2022-08-25T04:11:43.877Z,8.60
2022-08-25T04:12:43.854Z,8.90
2022-08-25T04:13:43.832Z,8.40
2022-08-25T04:14:43.834Z,8.50
2022-08-25T04:15:43.816Z,8.10
2022-08-25T04:16:43.930Z,8.40
2022-08-25T04:17:43.796Z,7.80
2022-08-25T04:18:43.788Z,7.70
2022-08-25T04:19:43.778Z,8.20
2022-08-25T04:20:46.695Z,8.10
2022-08-25T04:21:44.775Z,8.00
2022-08-25T04:22:45.194Z,8.70
2022-08-25T04:23:43.734Z,8.20
2022-08-25T04:24:43.750Z,8.90
2022-08-25T04:25:43.718Z,8.70
2022-08-25T04:26:43.722Z,8.70
2022-08-25T04:27:43.694Z,8.60
2022-08-25T04:28:43.688Z,8.50
2022-08-25T04:29:43.671Z,8.20
2022-08-25T04:30:43.689Z,8.40
2022-08-25T04:31:43.783Z,8.50
2022-08-25T04:32:43.647Z,8.10
2022-08-25T04:33:43.643Z,8.10
2022-08-25T04:34:43.630Z,7.60
2022-08-25T04:35:43.617Z,7.80
2022-08-25T04:36:43.620Z,8.10
2022-08-25T04:37:43.592Z,7.80
2022-08-25T04:38:43.625Z,7.80
2022-08-25T04:39:43.580Z,8.00
2022-08-25T04:40:43.630Z,7.50
2022-08-25T04:41:43.576Z,7.70
2022-08-25T04:42:43.649Z,7.60
2022-08-25T04:43:43.544Z,7.20
2022-08-25T04:44:43.525Z,8.10
2022-08-25T04:45:43.555Z,7.60
2022-08-25T04:46:43.525Z,7.90
2022-08-25T04:47:43.603Z,7.70
2022-08-25T04:48:43.492Z,7.50
2022-08-25T04:49:43.486Z,7.60
2022-08-25T04:50:43.481Z,7.30
2022-08-25T04:51:43.483Z,7.70
2022-08-25T04:52:43.459Z,7.30
2022-08-25T04:53:43.443Z,7.70
2022-08-25T04:54:43.448Z,7.60
2022-08-25T04:55:43.431Z,8.00
2022-08-25T04:56:43.427Z,8.10
2022-08-25T04:57:43.422Z,7.70
2022-08-25T04:58:43.482Z,7.80
2022-08-25T04:59:43.384Z,8.10
2022-08-25T05:00:43.413Z,8.20
2022-08-25T05:01:43.376Z,8.10
2022-08-25T05:02:43.357Z,8.30
2022-08-25T05:03:43.354Z,9.00
2022-08-25T05:04:43.424Z,8.90
2022-08-25T05:05:43.334Z,8.60
2022-08-25T05:06:43.336Z,8.40
2022-08-25T05:07:43.304Z,8.40
2022-08-25T05:08:46.030Z,8.10
2022-08-25T05:09:43.291Z,8.20
2022-08-25T05:10:43.279Z,8.90
2022-08-25T05:11:43.283Z,8.60
2022-08-25T05:12:43.254Z,8.70
2022-08-25T05:13:43.248Z,8.60
2022-08-25T05:14:43.245Z,8.90
2022-08-25T05:15:43.269Z,8.80
2022-08-25T05:16:43.301Z,8.40
2022-08-25T05:17:43.213Z,8.10
2022-08-25T05:18:43.203Z,8.50
2022-08-25T05:19:44.192Z,8.70
2022-08-25T05:20:43.173Z,8.70
2022-08-25T05:21:43.184Z,9.00
2022-08-25T05:22:43.184Z,9.00
2022-08-25T05:23:43.156Z,9.00
2022-08-25T05:24:43.143Z,9.00
2022-08-25T05:25:44.136Z,8.40
2022-08-25T05:26:43.138Z,8.60
2022-08-25T05:27:43.116Z,8.90
2022-08-25T05:28:43.097Z,8.00
2022-08-25T05:29:43.097Z,7.90
2022-08-25T05:30:43.084Z,8.00
2022-08-25T05:31:47.055Z,7.90
2022-08-25T05:32:44.062Z,8.20
2022-08-25T05:33:43.050Z,8.70
2022-08-25T05:34:43.042Z,8.40
2022-08-25T05:35:43.034Z,8.20
2022-08-25T05:36:43.037Z,8.80
2022-08-25T05:37:43.016Z,8.90
2022-08-25T05:38:43.004Z,8.20
2022-08-25T05:39:43.002Z,8.40
2022-08-25T05:40:42.990Z,8.10
2022-08-25T05:41:42.988Z,8.40
2022-08-25T05:42:42.964Z,8.10
2022-08-25T05:43:42.952Z,7.90
2022-08-25T05:44:42.942Z,8.00
2022-08-25T05:45:43.014Z,8.00
2022-08-25T05:46:42.940Z,8.70
2022-08-25T05:47:42.919Z,8.00
2022-08-25T05:48:42.893Z,7.90
2022-08-25T05:49:42.892Z,8.40
2022-08-25T05:50:42.904Z,7.60
2022-08-25T05:51:42.886Z,9.00
2022-08-25T05:52:42.878Z,8.70
2022-08-25T05:53:42.850Z,8.00
2022-08-25T05:54:43.091Z,7.80
2022-08-25T05:55:42.836Z,8.00
2022-08-25T05:56:42.826Z,8.00
2022-08-25T05:57:42.808Z,7.90
2022-08-25T05:58:42.801Z,7.80
2022-08-25T05:59:42.792Z,8.00
2022-08-25T06:00:42.842Z,7.90
2022-08-25T06:01:43.551Z,7.60
2022-08-25T06:02:42.757Z,7.50
2022-08-25T06:03:42.807Z,7.40
2022-08-25T06:04:42.738Z,7.70
2022-08-25T06:05:42.731Z,7.60
2022-08-25T06:06:42.736Z,7.90
2022-08-25T06:07:42.713Z,7.70
2022-08-25T06:08:42.701Z,7.90
2022-08-25T06:09:42.690Z,7.90
2022-08-25T06:10:42.685Z,7.50
2022-08-25T06:11:42.705Z,7.90
2022-08-25T06:12:42.663Z,8.20
2022-08-25T06:13:42.652Z,7.40
2022-08-25T06:14:42.654Z,7.50
2022-08-25T06:15:42.629Z,7.40
2022-08-25T06:16:42.662Z,7.10
2022-08-25T06:17:42.623Z,7.00
2022-08-25T06:18:42.598Z,7.10
2022-08-25T06:19:42.593Z,7.80
2022-08-25T06:20:42.583Z,7.70
2022-08-25T06:21:42.592Z,7.40
2022-08-25T06:22:42.563Z,7.30
2022-08-25T06:23:42.547Z,7.40
2022-08-25T06:24:42.551Z,7.00
2022-08-25T06:25:42.540Z,7.20
2022-08-25T06:26:42.544Z,7.70
2022-08-25T06:27:42.510Z,7.20
2022-08-25T06:28:42.504Z,6.90
2022-08-25T06:29:42.499Z,6.80
2022-08-25T06:30:42.484Z,6.70
2022-08-25T06:31:42.700Z,7.40
2022-08-25T06:32:42.466Z,6.80
2022-08-25T06:33:42.459Z,7.50
2022-08-25T06:34:42.458Z,6.90
2022-08-25T06:35:42.450Z,6.40
2022-08-25T06:36:42.441Z,6.60
2022-08-25T06:37:42.416Z,7.10
2022-08-25T06:38:42.417Z,6.60
2022-08-25T06:39:42.398Z,7.00
2022-08-25T06:40:42.387Z,6.80
2022-08-25T06:41:42.395Z,6.40
2022-08-25T06:42:42.373Z,7.00
2022-08-25T06:43:48.030Z,6.80
2022-08-25T06:44:43.343Z,7.50
2022-08-25T06:45:42.340Z,7.40
2022-08-25T06:46:42.393Z,7.30
2022-08-25T06:47:42.306Z,6.90
2022-08-25T06:48:42.304Z,7.30
2022-08-25T06:49:42.299Z,7.20
2022-08-25T06:50:42.288Z,6.30
2022-08-25T06:51:42.294Z,7.80
2022-08-25T06:52:42.268Z,7.00
2022-08-25T06:53:42.262Z,7.00
2022-08-25T06:54:42.245Z,6.60
2022-08-25T06:55:42.237Z,6.70
2022-08-25T06:56:42.245Z,6.70
2022-08-25T06:57:42.224Z,6.80
2022-08-25T06:58:42.253Z,6.70
2022-08-25T06:59:42.201Z,6.30
2022-08-25T07:00:42.232Z,6.90
2022-08-25T07:01:42.292Z,6.70
2022-08-25T07:02:42.225Z,6.30
2022-08-25T07:03:42.165Z,6.30
2022-08-25T07:04:42.153Z,6.90
2022-08-25T07:05:43.919Z,6.90
2022-08-25T07:06:43.143Z,7.00
2022-08-25T07:07:43.640Z,7.00
2022-08-25T07:08:42.136Z,6.20
2022-08-25T07:09:42.119Z,7.00
2022-08-25T07:10:42.107Z,6.50
2022-08-25T07:11:42.123Z,7.10
2022-08-25T07:12:42.085Z,6.80
2022-08-25T07:13:42.099Z,7.20
2022-08-25T07:14:46.598Z,6.80
2022-08-25T07:15:43.058Z,7.10
2022-08-25T07:16:45.994Z,7.30
2022-08-25T07:17:43.042Z,6.90
2022-08-25T07:18:42.037Z,7.40
2022-08-25T07:19:42.026Z,7.00
2022-08-25T07:20:42.025Z,7.00
2022-08-25T07:21:42.026Z,6.50
2022-08-25T07:22:41.998Z,7.20
2022-08-25T07:23:41.993Z,7.30
2022-08-25T07:24:41.980Z,7.00
2022-08-25T07:25:41.967Z,7.60
2022-08-25T07:26:41.983Z,7.10
2022-08-25T07:27:42.240Z,7.30
2022-08-25T07:28:47.339Z,7.20
2022-08-25T07:29:42.931Z,7.00
2022-08-25T07:30:41.933Z,6.70
2022-08-25T07:31:42.012Z,6.70
2022-08-25T07:32:43.242Z,6.80
2022-08-25T07:33:41.895Z,7.30
2022-08-25T07:34:41.898Z,6.90
2022-08-25T07:35:43.795Z,7.10
2022-08-25T07:36:41.885Z,6.40
2022-08-25T07:37:49.743Z,7.20
2022-08-25T07:38:43.848Z,7.30
2022-08-25T07:39:41.836Z,6.80
2022-08-25T07:40:42.696Z,6.60
2022-08-25T07:41:41.849Z,6.80
2022-08-25T07:42:41.810Z,7.40
2022-08-25T07:43:41.801Z,7.30
2022-08-25T07:44:41.789Z,7.10
2022-08-25T07:45:49.496Z,7.60
2022-08-25T07:46:42.837Z,7.60
2022-08-25T07:47:41.809Z,7.60
2022-08-25T07:48:41.747Z,7.40
2022-08-25T07:49:41.741Z,7.50
2022-08-25T07:50:41.761Z,7.40
2022-08-25T07:52:04.271Z,7.60
2022-08-25T07:52:42.741Z,7.30
2022-08-25T07:53:41.708Z,7.10
2022-08-25T07:54:41.696Z,7.70
2022-08-25T07:55:41.680Z,7.40
2022-08-25T07:56:41.691Z,7.50
2022-08-25T07:57:41.667Z,7.10
2022-08-25T07:58:41.651Z,7.10
2022-08-25T07:59:41.631Z,7.00
2022-08-25T08:00:42.191Z,6.80
2022-08-25T08:01:41.682Z,7.40
2022-08-25T08:02:41.666Z,6.90
2022-08-25T08:03:50.636Z,7.10
2022-08-25T08:04:43.584Z,6.70
2022-08-25T08:05:41.579Z,7.20
2022-08-25T08:06:41.581Z,6.50
2022-08-25T08:07:43.820Z,7.20
2022-08-25T08:08:41.633Z,7.20
2022-08-25T08:09:41.540Z,7.20
2022-08-25T08:11:02.749Z,7.10
2022-08-25T08:11:53.701Z,7.20
2022-08-25T08:12:43.508Z,6.60
2022-08-25T08:13:41.640Z,7.40
2022-08-25T08:14:45.032Z,7.40
2022-08-25T08:15:41.529Z,7.70
2022-08-25T08:16:41.487Z,7.70
2022-08-25T08:17:41.473Z,7.50
2022-08-25T08:18:41.449Z,7.70
2022-08-25T08:19:44.863Z,7.70
2022-08-25T08:20:42.947Z,7.30
2022-08-25T08:21:41.451Z,7.30
2022-08-25T08:22:41.412Z,7.30
2022-08-25T08:23:41.432Z,6.90
2022-08-25T08:24:44.864Z,7.20
2022-08-25T08:25:43.377Z,7.00
2022-08-25T08:26:58.269Z,7.40
2022-08-25T08:27:43.363Z,7.30
2022-08-25T08:28:41.351Z,7.10
2022-08-25T08:29:41.336Z,7.30
2022-08-25T08:30:53.509Z,7.30
2022-08-25T08:31:48.584Z,7.00
2022-08-25T08:33:08.217Z,7.40
2022-08-25T08:33:43.304Z,7.20
2022-08-25T08:34:41.294Z,6.60
2022-08-25T08:35:41.307Z,6.90
2022-08-25T08:36:41.288Z,7.10
2022-08-25T08:37:41.262Z,7.50
2022-08-25T08:38:41.246Z,6.60
2022-08-25T08:39:41.241Z,7.10
2022-08-25T08:40:41.236Z,7.40
2022-08-25T08:42:07.672Z,6.70
2022-08-25T08:42:46.735Z,7.10
2022-08-25T08:43:41.216Z,7.40
2022-08-25T08:44:41.188Z,7.20
2022-08-25T08:45:43.990Z,7.20
2022-08-25T08:46:41.240Z,7.10
2022-08-25T08:47:41.286Z,7.20
2022-08-25T08:48:41.156Z,7.10
2022-08-25T08:49:41.148Z,6.70
2022-08-25T08:50:41.143Z,7.00
2022-08-25T08:51:41.147Z,7.10
2022-08-25T08:52:41.119Z,7.10
2022-08-25T08:53:41.115Z,6.80
2022-08-25T08:54:41.384Z,7.10
2022-08-25T08:55:41.095Z,7.20
2022-08-25T08:56:45.458Z,6.90
2022-08-25T08:57:42.155Z,6.80
2022-08-25T08:58:41.775Z,6.90
2022-08-25T08:59:41.060Z,6.40
2022-08-25T09:00:41.039Z,6.90
2022-08-25T09:01:42.090Z,6.80
2022-08-25T09:02:50.527Z,6.70
2022-08-25T09:03:42.063Z,6.50
2022-08-25T09:04:41.005Z,7.20
2022-08-25T09:05:44.951Z,7.00
2022-08-25T09:06:42.097Z,6.70
2022-08-25T09:07:42.334Z,6.60
2022-08-25T09:08:44.692Z,6.40
2022-08-25T09:09:40.957Z,6.10
2022-08-25T09:10:40.952Z,6.50
2022-08-25T09:11:40.958Z,9.40
2022-08-25T09:12:40.989Z,8.60
2022-08-25T09:13:40.928Z,10.20
2022-08-25T09:14:40.913Z,9.60
2022-08-25T09:15:41.237Z,8.70
2022-08-25T09:16:40.989Z,9.20
2022-08-25T09:17:40.885Z,7.10
2022-08-25T09:18:40.877Z,7.80
2022-08-25T09:19:42.349Z,6.80
2022-08-25T09:20:40.880Z,8.00
2022-08-25T09:21:40.861Z,6.20
2022-08-25T09:22:40.840Z,7.00
2022-08-25T09:23:40.830Z,6.90
2022-08-25T09:24:40.823Z,7.40
2022-08-25T09:25:52.728Z,7.50
2022-08-25T09:26:41.828Z,6.50
2022-08-25T09:27:40.817Z,6.90
2022-08-25T09:28:40.786Z,6.50
2022-08-25T09:29:40.772Z,7.30
2022-08-25T09:30:40.777Z,6.80
2022-08-25T09:31:40.821Z,6.40
2022-08-25T09:32:40.750Z,6.80
2022-08-25T09:33:40.740Z,6.60
2022-08-25T09:34:40.775Z,6.70
2022-08-25T09:35:40.755Z,7.10
2022-08-25T09:36:40.723Z,6.30
2022-08-25T09:37:40.701Z,6.60
2022-08-25T09:38:40.700Z,6.40
2022-08-25T09:39:40.815Z,5.80
2022-08-25T09:40:40.677Z,6.40
2022-08-25T09:41:40.688Z,6.40
2022-08-25T09:43:12.567Z,6.10
2022-08-25T09:43:40.651Z,5.80
2022-08-25T09:44:40.633Z,5.50
2022-08-25T09:45:40.633Z,5.60
2022-08-25T09:46:40.669Z,5.80
2022-08-25T09:47:40.620Z,5.60
2022-08-25T09:48:40.971Z,5.60
2022-08-25T09:49:40.590Z,5.60
2022-08-25T09:50:45.580Z,5.60
2022-08-25T09:51:43.401Z,5.80
2022-08-25T09:52:41.387Z,5.30
2022-08-25T09:53:40.560Z,5.90
2022-08-25T09:54:44.301Z,6.10
2022-08-25T09:55:41.536Z,5.70
2022-08-25T09:56:40.556Z,6.10
2022-08-25T09:57:40.516Z,5.90
2022-08-25T09:58:40.510Z,6.10
2022-08-25T09:59:40.504Z,6.00
2022-08-25T10:00:41.492Z,5.50
2022-08-25T10:01:40.537Z,5.90
2022-08-25T10:02:40.498Z,6.00
2022-08-25T10:03:40.465Z,5.60
2022-08-25T10:04:40.555Z,5.80
2022-08-25T10:05:40.448Z,5.80
2022-08-25T10:06:40.436Z,6.00
2022-08-25T10:07:40.453Z,6.30
2022-08-25T10:08:40.416Z,6.30
2022-08-25T10:09:40.411Z,6.20
2022-08-25T10:10:41.956Z,5.80
2022-08-25T10:11:40.387Z,6.10
2022-08-25T10:12:42.930Z,6.20
2022-08-25T10:13:40.371Z,6.00
2022-08-25T10:14:44.669Z,6.10
2022-08-25T10:15:40.380Z,6.00
2022-08-25T10:16:40.372Z,6.30
2022-08-25T10:17:40.350Z,6.50
2022-08-25T10:18:40.320Z,6.30
2022-08-25T10:19:40.324Z,6.40
2022-08-25T10:20:42.221Z,6.20
2022-08-25T10:21:40.297Z,6.10
2022-08-25T10:22:40.302Z,6.20
2022-08-25T10:23:40.277Z,6.00
2022-08-25T10:24:41.040Z,6.40
2022-08-25T10:25:40.276Z,6.00
2022-08-25T10:26:40.246Z,6.00
2022-08-25T10:27:40.253Z,5.70
2022-08-25T10:28:40.221Z,5.50
2022-08-25T10:29:40.858Z,5.40
2022-08-25T10:30:40.279Z,6.10
2022-08-25T10:31:41.328Z,5.70
2022-08-25T10:32:40.218Z,5.80
2022-08-25T10:33:40.187Z,5.60
2022-08-25T10:34:40.173Z,5.50
2022-08-25T10:35:40.167Z,5.30
2022-08-25T10:36:40.148Z,5.40
2022-08-25T10:37:40.175Z,5.40
2022-08-25T10:38:43.133Z,5.50
2022-08-25T10:39:40.697Z,5.90
2022-08-25T10:40:40.222Z,6.30
2022-08-25T10:41:40.106Z,6.20
2022-08-25T10:42:40.118Z,6.10
2022-08-25T10:43:40.099Z,6.20
2022-08-25T10:44:40.083Z,5.90
2022-08-25T10:45:40.075Z,6.00
2022-08-25T10:46:40.162Z,5.30
2022-08-25T10:47:40.067Z,5.70
2022-08-25T10:48:40.031Z,5.60
2022-08-25T10:49:40.028Z,5.50
2022-08-25T10:50:40.026Z,5.40
2022-08-25T10:51:41.019Z,5.40
2022-08-25T10:52:40.022Z,5.40
2022-08-25T10:53:39.987Z,5.60
2022-08-25T10:54:39.973Z,5.70
2022-08-25T10:55:40.461Z,5.60
2022-08-25T10:56:40.783Z,5.20
2022-08-25T10:57:39.977Z,5.30
2022-08-25T10:58:39.947Z,5.40
2022-08-25T10:59:39.935Z,5.80
2022-08-25T11:00:40.368Z,5.60
2022-08-25T11:01:43.938Z,6.00
2022-08-25T11:02:41.413Z,6.00
2022-08-25T11:03:39.896Z,5.80
2022-08-25T11:04:39.938Z,5.50
2022-08-25T11:05:39.971Z,5.30
2022-08-25T11:06:39.877Z,5.50
2022-08-25T11:07:39.878Z,5.90
2022-08-25T11:08:39.839Z,6.50
2022-08-25T11:09:40.212Z,6.30
2022-08-25T11:10:39.837Z,6.20
2022-08-25T11:11:39.819Z,5.90
2022-08-25T11:12:39.845Z,6.20
2022-08-25T11:13:39.802Z,5.80
2022-08-25T11:14:39.794Z,6.20
2022-08-25T11:15:46.757Z,5.90
2022-08-25T11:16:41.845Z,5.90
2022-08-25T11:17:39.778Z,5.20
2022-08-25T11:18:39.757Z,5.60
2022-08-25T11:19:39.746Z,5.30
2022-08-25T11:20:39.732Z,5.50
2022-08-25T11:21:39.730Z,5.40
2022-08-25T11:22:39.752Z,5.20
2022-08-25T11:23:39.704Z,5.20
2022-08-25T11:24:39.702Z,5.60
2022-08-25T11:25:39.681Z,5.90
2022-08-25T11:26:40.670Z,6.60
2022-08-25T11:27:39.695Z,6.20
2022-08-25T11:28:39.646Z,6.70
2022-08-25T11:29:39.645Z,6.80
2022-08-25T11:30:39.712Z,7.20
2022-08-25T11:31:39.627Z,6.90
2022-08-25T11:32:39.627Z,6.70
2022-08-25T11:33:39.607Z,6.60
2022-08-25T11:34:43.655Z,5.90
2022-08-25T11:35:39.598Z,5.90
2022-08-25T11:36:39.583Z,6.40
2022-08-25T11:37:39.591Z,6.00
2022-08-25T11:38:39.578Z,6.30
2022-08-25T11:39:40.225Z,6.00
2022-08-25T11:40:39.545Z,6.10
2022-08-25T11:41:39.543Z,6.10
2022-08-25T11:42:39.544Z,6.20
2022-08-25T11:43:40.530Z,6.20
2022-08-25T11:44:39.510Z,6.00
2022-08-25T11:45:40.571Z,5.90
2022-08-25T11:46:39.491Z,6.10
2022-08-25T11:47:39.493Z,6.10
2022-08-25T11:48:39.465Z,5.80
2022-08-25T11:49:39.462Z,6.00
2022-08-25T11:50:39.447Z,5.90
2022-08-25T11:51:39.465Z,5.90
2022-08-25T11:52:39.441Z,5.70
2022-08-25T11:53:42.143Z,6.60
2022-08-25T11:54:39.409Z,6.20
2022-08-25T11:55:39.399Z,6.30
2022-08-25T11:56:40.065Z,6.20
2022-08-25T11:57:39.444Z,6.20
2022-08-25T11:58:40.602Z,6.10
2022-08-25T11:59:39.363Z,6.10
2022-08-25T12:00:39.351Z,6.10
2022-08-25T12:01:39.348Z,6.30
2022-08-25T12:02:39.376Z,6.00
2022-08-25T12:03:39.324Z,6.40
2022-08-25T12:04:44.250Z,6.10
2022-08-25T12:05:39.339Z,6.60
2022-08-25T12:06:39.295Z,6.80
2022-08-25T12:07:39.301Z,6.50
2022-08-25T12:08:39.275Z,6.90
2022-08-25T12:09:39.264Z,6.50
2022-08-25T12:10:39.263Z,7.20
2022-08-25T12:11:39.255Z,6.60
2022-08-25T12:12:39.253Z,6.70
2022-08-25T12:13:39.225Z,7.10
2022-08-25T12:14:39.227Z,6.80
2022-08-25T12:15:39.214Z,6.90
2022-08-25T12:16:39.278Z,6.70
2022-08-25T12:17:39.455Z,7.60
2022-08-25T12:18:39.182Z,7.00
2022-08-25T12:19:40.180Z,7.00
2022-08-25T12:20:39.162Z,6.50
2022-08-25T12:21:39.161Z,6.20
2022-08-25T12:22:39.175Z,6.00
2022-08-25T12:23:45.022Z,6.30
2022-08-25T12:24:40.137Z,6.50
2022-08-25T12:25:39.116Z,6.90
2022-08-25T12:26:39.110Z,6.70
2022-08-25T12:27:39.126Z,6.70
2022-08-25T12:28:39.176Z,6.70
2022-08-25T12:29:39.092Z,6.80
2022-08-25T12:30:39.122Z,6.60
2022-08-25T12:31:39.087Z,7.00
2022-08-25T12:32:39.144Z,6.50
2022-08-25T12:33:39.047Z,6.60
2022-08-25T12:34:39.055Z,6.60
2022-08-25T12:35:39.027Z,6.80
2022-08-25T12:36:39.006Z,6.50
2022-08-25T12:37:39.027Z,6.70
2022-08-25T12:38:43.182Z,6.50
2022-08-25T12:39:40.990Z,6.40
2022-08-25T12:40:38.981Z,6.50
2022-08-25T12:41:38.972Z,6.20
2022-08-25T12:42:39.000Z,6.40
2022-08-25T12:43:38.944Z,6.00
2022-08-25T12:44:38.939Z,6.10
2022-08-25T12:45:38.984Z,5.90
2022-08-25T12:46:38.926Z,6.40
2022-08-25T12:47:40.850Z,6.40
2022-08-25T12:48:40.911Z,6.20
2022-08-25T12:49:38.907Z,5.90
2022-08-25T12:50:38.879Z,5.90
2022-08-25T12:51:38.870Z,6.10
2022-08-25T12:52:38.993Z,6.10
2022-08-25T12:53:38.860Z,6.30
2022-08-25T12:54:38.847Z,6.30
2022-08-25T12:55:38.846Z,6.20
2022-08-25T12:56:39.418Z,6.00
2022-08-25T12:57:40.481Z,6.00
2022-08-25T12:58:58.885Z,6.20
2022-08-25T12:59:40.811Z,6.00
2022-08-25T13:00:38.793Z,6.00
2022-08-25T13:01:39.863Z,6.50
2022-08-25T13:02:38.837Z,6.10
2022-08-25T13:04:38.754Z,6.30
2022-08-25T13:05:38.748Z,6.00
2022-08-25T13:06:38.739Z,6.10
2022-08-25T13:07:38.758Z,5.90
2022-08-25T13:08:41.189Z,5.60
2022-08-25T13:09:39.744Z,5.80
2022-08-25T13:10:38.689Z,6.00
2022-08-25T13:11:38.691Z,5.80
2022-08-25T13:12:38.699Z,5.60
2022-08-25T13:13:38.672Z,5.50
2022-08-25T13:14:38.666Z,5.80
2022-08-25T13:15:38.655Z,5.90
2022-08-25T13:16:38.684Z,5.60
2022-08-25T13:17:38.653Z,5.50
2022-08-25T13:18:38.629Z,5.90
2022-08-25T13:19:38.614Z,5.90
2022-08-25T13:20:38.611Z,5.60
2022-08-25T13:21:38.596Z,5.20